Time;durP1;ratioP1;P1;durP2;ratioP2;P2;SDS_P1;SDS_P2;PMS_P1;PMS_P2;Temp;Humidity;BMP_temperature;BMP_pressure;BME280_temperature;BME280_humidity;BME280_pressure;Samples;Min_cycle;Max_cycle;Signal;HPM_P1;HPM_P2
2024/03/19 00:01:48;;;;;;;14.27;8.30;;;8.70;99.90;;;;;;5030185;28;20037;-74
2024/03/19 00:04:14;;;;;;;14.27;8.57;;;8.70;99.90;;;;;;5033254;28;20030;-74
2024/03/19 00:06:40;;;;;;;14.73;8.48;;;8.70;99.90;;;;;;5033854;28;20491;-73
2024/03/19 00:09:08;;;;;;;14.35;8.68;;;8.70;99.90;;;;;;5032766;28;20151;-73
2024/03/19 00:11:34;;;;;;;16.77;8.50;;;8.70;99.90;;;;;;5032327;28;20387;-73
2024/03/19 00:13:59;;;;;;;14.38;8.93;;;8.70;99.90;;;;;;5029134;28;20022;-74
2024/03/19 00:16:25;;;;;;;15.07;8.23;;;8.80;99.90;;;;;;5029811;28;20033;-74
2024/03/19 00:18:51;;;;;;;15.52;8.55;;;8.80;99.90;;;;;;5035159;28;20097;-75
2024/03/19 00:21:17;;;;;;;15.27;9.15;;;8.80;99.90;;;;;;5030526;28;20028;-74
2024/03/19 00:23:42;;;;;;;16.83;8.43;;;8.80;99.90;;;;;;5031199;28;20029;-74
2024/03/19 00:26:08;;;;;;;14.75;8.57;;;8.80;99.90;;;;;;5029807;28;20030;-75
2024/03/19 00:28:33;;;;;;;14.95;8.18;;;8.90;99.90;;;;;;5031451;28;20521;-75
2024/03/19 00:31:00;;;;;;;14.10;8.38;;;8.90;99.90;;;;;;5029522;28;20107;-74
2024/03/19 00:33:26;;;;;;;13.43;8.27;;;8.90;99.90;;;;;;5029371;28;20039;-74
2024/03/19 00:35:52;;;;;;;15.65;8.93;;;8.90;99.90;;;;;;5032886;28;20478;-74
2024/03/19 00:38:19;;;;;;;13.32;7.68;;;8.90;99.90;;;;;;5031046;28;20060;-74
2024/03/19 00:40:45;;;;;;;13.32;7.95;;;8.80;99.90;;;;;;5028412;28;20537;-73
2024/03/19 00:43:11;;;;;;;15.40;8.77;;;8.80;99.90;;;;;;5029530;28;20029;-74
2024/03/19 00:45:36;;;;;;;14.35;8.18;;;8.90;99.90;;;;;;5029853;28;20869;-73
2024/03/19 00:52:11;;;;;;;15.80;9.07;;;8.90;99.90;;;;;;5025226;28;20028;-74
2024/03/19 00:54:36;;;;;;;14.65;8.82;;;8.90;99.90;;;;;;5027276;28;20045;-76
2024/03/19 00:57:03;;;;;;;16.80;8.82;;;8.90;99.90;;;;;;5027451;28;20037;-75
2024/03/19 00:59:28;;;;;;;16.00;8.63;;;8.90;99.90;;;;;;5032904;28;20032;-75
2024/03/19 01:01:54;;;;;;;15.60;8.52;;;9.00;99.90;;;;;;5036654;28;20057;-74
2024/03/19 01:04:20;;;;;;;15.20;8.52;;;8.90;99.90;;;;;;5047880;28;20033;-77
2024/03/19 01:06:46;;;;;;;15.88;9.45;;;8.90;99.90;;;;;;5030571;28;20030;-73
2024/03/19 01:09:15;;;;;;;16.00;8.68;;;8.90;99.90;;;;;;5036991;28;20040;-74
2024/03/19 01:11:41;;;;;;;14.07;8.75;;;8.90;99.90;;;;;;5035173;28;20013;-76
2024/03/19 01:14:07;;;;;;;16.58;9.27;;;8.90;99.90;;;;;;5033409;28;20155;-74
2024/03/19 01:16:33;;;;;;;17.63;9.52;;;8.90;99.90;;;;;;5030584;28;20018;-74
2024/03/19 01:18:59;;;;;;;18.48;9.98;;;8.90;99.90;;;;;;5037071;28;20046;-75
2024/03/19 01:21:25;;;;;;;15.73;9.50;;;8.90;99.90;;;;;;5033725;28;20034;-74
2024/03/19 01:23:51;;;;;;;16.50;9.52;;;8.90;99.90;;;;;;5039386;28;20051;-75
2024/03/19 01:26:17;;;;;;;18.27;9.15;;;8.90;99.90;;;;;;5050936;28;20518;-75
2024/03/19 01:28:43;;;;;;;16.08;8.38;;;8.90;99.90;;;;;;5035428;28;20076;-74
2024/03/19 01:31:09;;;;;;;17.92;8.73;;;9.00;99.90;;;;;;5022477;28;20058;-73
2024/03/19 01:33:35;;;;;;;16.73;8.60;;;9.00;99.90;;;;;;5030646;28;20657;-74
2024/03/19 01:36:00;;;;;;;13.57;8.10;;;9.00;99.90;;;;;;5028908;28;20029;-73
2024/03/19 01:38:26;;;;;;;13.38;7.78;;;8.90;99.90;;;;;;5030109;28;20403;-72
2024/03/19 01:40:52;;;;;;;13.18;8.30;;;8.90;99.90;;;;;;5027281;28;20116;-73
2024/03/19 01:43:21;;;;;;;13.70;8.10;;;8.80;99.90;;;;;;5027005;28;20102;-74
2024/03/19 01:46:06;;;;;;;13.40;7.68;;;8.70;99.90;;;;;;5032205;28;20029;-74
2024/03/19 01:48:32;;;;;;;15.93;8.70;;;8.80;99.90;;;;;;5045107;28;20549;-74
2024/03/19 01:50:59;;;;;;;15.68;8.18;;;8.80;99.90;;;;;;5028723;28;20257;-74
2024/03/19 01:53:25;;;;;;;16.33;8.40;;;8.80;99.90;;;;;;5029738;28;20048;-74
2024/03/19 01:55:51;;;;;;;13.57;7.88;;;8.80;99.90;;;;;;5028105;28;20553;-74
2024/03/19 01:58:17;;;;;;;13.93;7.03;;;8.80;99.90;;;;;;5028505;28;20032;-73
2024/03/19 02:00:44;;;;;;;14.02;7.85;;;8.80;99.90;;;;;;5022588;28;20041;-74
2024/03/19 02:03:10;;;;;;;15.63;8.48;;;8.70;99.90;;;;;;5026410;28;20030;-76
2024/03/19 02:05:36;;;;;;;15.38;7.85;;;8.80;99.90;;;;;;5024904;28;20041;-74
2024/03/19 02:08:02;;;;;;;15.45;7.78;;;8.80;99.90;;;;;;5027899;28;20076;-74
2024/03/19 02:10:28;;;;;;;16.38;8.68;;;8.80;99.90;;;;;;5026920;28;20125;-74
2024/03/19 02:12:53;;;;;;;15.73;7.78;;;8.80;99.90;;;;;;5030318;28;20025;-75
2024/03/19 02:15:19;;;;;;;18.20;9.10;;;8.80;99.90;;;;;;5029261;28;20018;-74
2024/03/19 02:17:47;;;;;;;17.73;8.15;;;8.80;99.90;;;;;;5045508;28;20077;-75
2024/03/19 02:20:12;;;;;;;15.30;8.43;;;8.90;99.90;;;;;;5029870;28;20029;-75
2024/03/19 02:22:49;;;;;;;16.48;8.85;;;8.90;99.90;;;;;;5031181;28;20052;-74
2024/03/19 02:25:16;;;;;;;16.25;7.65;;;8.80;99.90;;;;;;5031432;28;20037;-75
2024/03/19 02:27:43;;;;;;;18.00;8.32;;;8.80;99.90;;;;;;5031429;28;20597;-74
2024/03/19 02:30:09;;;;;;;16.13;8.82;;;8.90;99.90;;;;;;5028415;28;20175;-75
2024/03/19 02:32:35;;;;;;;18.50;9.02;;;8.90;99.90;;;;;;5026907;28;20091;-75
2024/03/19 02:35:01;;;;;;;16.70;8.30;;;8.90;99.90;;;;;;5029601;28;20030;-75
2024/03/19 02:37:27;;;;;;;17.88;8.13;;;8.90;99.90;;;;;;5029618;28;20115;-74
2024/03/19 02:39:52;;;;;;;20.42;8.35;;;8.90;99.90;;;;;;5030841;28;20441;-75
2024/03/19 02:42:19;;;;;;;16.58;7.93;;;9.00;99.90;;;;;;5029034;28;20423;-75
2024/03/19 02:44:45;;;;;;;16.77;8.10;;;9.00;99.90;;;;;;5025797;28;20037;-75
2024/03/19 02:47:11;;;;;;;16.10;8.55;;;9.00;99.90;;;;;;5025155;28;20029;-74
2024/03/19 02:49:37;;;;;;;20.55;8.52;;;9.00;99.90;;;;;;5025623;28;20040;-74
2024/03/19 02:52:02;;;;;;;17.45;8.23;;;9.00;99.90;;;;;;5029635;28;20021;-73
2024/03/19 02:54:28;;;;;;;17.92;8.23;;;9.00;99.90;;;;;;5030588;28;20049;-73
2024/03/19 02:56:54;;;;;;;15.00;7.40;;;9.00;99.90;;;;;;5028723;28;20037;-73
2024/03/19 02:59:19;;;;;;;17.35;8.65;;;9.00;99.90;;;;;;5030171;28;20116;-73
2024/03/19 03:01:45;;;;;;;15.45;6.85;;;9.00;99.90;;;;;;5028103;28;20049;-73
2024/03/19 03:04:12;;;;;;;18.52;8.07;;;9.00;99.90;;;;;;5030289;28;20033;-73
2024/03/19 03:06:38;;;;;;;15.07;7.75;;;9.00;99.90;;;;;;5028274;28;20057;-73
2024/03/19 03:09:06;;;;;;;17.25;7.78;;;9.00;99.90;;;;;;5031012;28;20080;-74
2024/03/19 03:11:32;;;;;;;18.23;7.80;;;9.00;99.90;;;;;;5028600;28;20036;-74
2024/03/19 03:13:57;;;;;;;16.05;7.95;;;9.00;99.90;;;;;;5027457;28;20563;-74
2024/03/19 03:16:23;;;;;;;18.92;8.73;;;9.00;99.90;;;;;;5029980;28;20025;-74
2024/03/19 03:18:49;;;;;;;14.02;7.50;;;9.00;99.90;;;;;;5030093;28;20030;-73
2024/03/19 03:21:15;;;;;;;17.67;8.38;;;9.00;99.90;;;;;;5027829;28;20042;-75
2024/03/19 03:23:41;;;;;;;13.65;7.47;;;9.00;99.90;;;;;;5038907;28;20021;-74
2024/03/19 03:26:07;;;;;;;16.20;7.28;;;9.00;99.90;;;;;;5035260;28;20028;-74
2024/03/19 03:28:33;;;;;;;15.27;8.05;;;9.00;99.90;;;;;;5039730;28;20033;-76
2024/03/19 03:30:59;;;;;;;16.70;7.90;;;9.00;99.90;;;;;;5033458;28;20034;-75
2024/03/19 03:33:26;;;;;;;14.98;8.13;;;8.90;99.90;;;;;;5034458;28;20112;-75
2024/03/19 03:35:52;;;;;;;15.15;7.68;;;8.90;99.90;;;;;;5036138;28;20026;-74
2024/03/19 03:38:17;;;;;;;18.00;8.60;;;9.00;99.90;;;;;;5039706;28;20095;-74
2024/03/19 03:40:44;;;;;;;15.93;8.40;;;8.90;99.90;;;;;;5033222;28;20029;-73
2024/03/19 03:43:09;;;;;;;17.98;8.10;;;8.90;99.90;;;;;;5034802;28;20255;-75
2024/03/19 03:45:36;;;;;;;14.85;7.45;;;9.00;99.90;;;;;;5038289;28;20388;-73
2024/03/19 03:48:01;;;;;;;16.80;7.78;;;8.90;99.90;;;;;;5035032;28;20028;-76
2024/03/19 03:50:27;;;;;;;17.90;7.70;;;9.00;99.90;;;;;;5029997;28;20106;-75
2024/03/19 03:52:53;;;;;;;17.17;7.57;;;9.00;99.90;;;;;;5028495;28;20026;-74
2024/03/19 03:55:19;;;;;;;17.30;7.80;;;9.00;99.90;;;;;;5028325;28;20033;-74
2024/03/19 03:57:45;;;;;;;18.08;8.30;;;9.00;99.90;;;;;;5027645;28;20612;-74
2024/03/19 04:00:12;;;;;;;14.60;7.85;;;9.00;99.90;;;;;;5024776;28;20053;-73
2024/03/19 04:02:42;;;;;;;16.60;8.80;;;9.00;99.90;;;;;;5021919;28;20041;-74
2024/03/19 04:05:08;;;;;;;18.60;8.10;;;9.00;99.90;;;;;;5024725;28;20116;-74
2024/03/19 04:07:39;;;;;;;17.48;8.30;;;9.00;99.90;;;;;;5026355;28;20082;-73
2024/03/19 04:10:08;;;;;;;17.73;8.73;;;9.00;99.90;;;;;;5025735;28;20478;-73
2024/03/19 04:12:34;;;;;;;17.50;8.38;;;9.00;99.90;;;;;;5039797;28;20440;-73
2024/03/19 04:15:00;;;;;;;17.15;8.60;;;9.00;99.90;;;;;;5027672;28;20026;-74
2024/03/19 04:17:27;;;;;;;17.77;8.10;;;9.00;99.90;;;;;;5026243;28;20502;-73
2024/03/19 04:19:53;;;;;;;15.27;7.50;;;8.90;99.90;;;;;;5026468;28;20618;-73
2024/03/19 04:22:18;;;;;;;18.55;7.93;;;8.90;99.90;;;;;;5024281;28;20120;-74
2024/03/19 04:24:44;;;;;;;17.52;8.20;;;8.90;99.90;;;;;;5018424;28;20389;-73
2024/03/19 04:27:09;;;;;;;18.77;8.50;;;8.90;99.90;;;;;;5024072;28;20034;-73
2024/03/19 04:29:35;;;;;;;17.63;8.88;;;9.00;99.90;;;;;;5026962;28;20048;-73
2024/03/19 04:32:01;;;;;;;19.27;7.68;;;8.90;99.90;;;;;;5012506;28;20030;-74
2024/03/19 04:34:27;;;;;;;16.63;8.05;;;8.90;99.90;;;;;;5006386;28;20038;-74
2024/03/19 04:36:53;;;;;;;20.38;8.52;;;9.00;99.90;;;;;;5004846;28;20044;-73
2024/03/19 04:39:18;;;;;;;14.75;7.70;;;9.00;99.90;;;;;;5006194;28;20042;-73
2024/03/19 04:41:45;;;;;;;15.85;7.97;;;9.00;99.90;;;;;;5008441;28;20044;-74
2024/03/19 04:44:10;;;;;;;16.50;8.55;;;8.90;99.90;;;;;;5007257;28;20037;-74
2024/03/19 04:46:36;;;;;;;16.00;8.35;;;9.00;99.90;;;;;;5002095;28;20030;-74
2024/03/19 04:49:02;;;;;;;14.88;7.97;;;9.00;99.90;;;;;;5009833;28;20391;-73
2024/03/19 04:51:30;;;;;;;14.60;7.43;;;8.90;99.90;;;;;;5009942;28;20029;-75
2024/03/19 04:53:55;;;;;;;14.88;7.63;;;9.00;99.90;;;;;;5007867;28;20046;-74
2024/03/19 04:56:21;;;;;;;13.82;6.78;;;9.10;99.90;;;;;;5014857;28;20598;-74
2024/03/19 04:58:47;;;;;;;16.10;6.72;;;9.00;99.90;;;;;;5016059;28;20061;-74
2024/03/19 05:01:15;;;;;;;14.43;7.47;;;9.00;99.90;;;;;;5024206;28;20034;-75
2024/03/19 05:03:41;;;;;;;18.00;8.52;;;9.00;99.90;;;;;;5040174;28;20044;-74
2024/03/19 05:06:11;;;;;;;15.85;8.05;;;9.00;99.90;;;;;;5045514;28;20045;-76
2024/03/19 05:08:38;;;;;;;16.83;7.95;;;9.00;99.90;;;;;;5039516;28;20022;-74
2024/03/19 05:11:03;;;;;;;15.05;7.80;;;9.00;99.90;;;;;;5048968;28;20049;-75
2024/03/19 05:13:29;;;;;;;19.05;8.02;;;9.00;99.90;;;;;;5045008;28;20025;-76
2024/03/19 05:15:55;;;;;;;17.15;8.30;;;9.00;99.90;;;;;;5036333;28;20034;-75
2024/03/19 05:18:21;;;;;;;19.90;8.90;;;8.90;99.90;;;;;;5044077;28;20091;-74
2024/03/19 05:20:48;;;;;;;18.00;8.40;;;8.90;99.90;;;;;;5046053;28;20491;-74
2024/03/19 05:23:14;;;;;;;19.38;8.93;;;8.90;99.90;;;;;;5035602;28;20060;-74
2024/03/19 05:25:42;;;;;;;18.92;9.43;;;9.00;99.90;;;;;;5042866;28;20036;-74
2024/03/19 05:28:08;;;;;;;20.70;9.03;;;9.00;99.90;;;;;;5043184;28;20029;-75
2024/03/19 05:30:36;;;;;;;21.58;9.25;;;9.00;99.90;;;;;;5043815;28;20028;-74
2024/03/19 05:33:05;;;;;;;15.50;8.30;;;9.10;99.90;;;;;;5043645;28;20036;-75
2024/03/19 05:35:30;;;;;;;18.75;9.13;;;9.00;99.90;;;;;;5033732;28;20030;-74
2024/03/19 05:37:57;;;;;;;19.80;9.02;;;9.00;99.90;;;;;;5043151;28;20041;-75
2024/03/19 05:40:23;;;;;;;18.90;8.10;;;9.00;99.90;;;;;;5043671;28;20077;-74
2024/03/19 05:42:48;;;;;;;18.55;9.50;;;9.00;99.90;;;;;;5032482;28;20029;-74
2024/03/19 05:45:14;;;;;;;19.88;10.48;;;9.00;99.90;;;;;;5027224;28;20029;-74
2024/03/19 05:47:40;;;;;;;18.42;9.23;;;9.00;99.90;;;;;;5032677;28;20029;-75
2024/03/19 05:50:10;;;;;;;19.75;9.13;;;9.00;99.90;;;;;;5028848;28;20026;-74
2024/03/19 05:52:36;;;;;;;19.33;9.45;;;9.10;99.90;;;;;;5031813;28;20533;-74
2024/03/19 05:55:02;;;;;;;19.30;9.95;;;9.10;99.90;;;;;;5028574;28;20152;-73
2024/03/19 05:57:28;;;;;;;21.58;10.52;;;9.10;99.90;;;;;;5027625;28;20116;-74
2024/03/19 05:59:54;;;;;;;19.08;8.95;;;9.10;99.90;;;;;;5027366;28;20053;-74
2024/03/19 06:02:20;;;;;;;18.38;9.38;;;9.20;99.90;;;;;;5025938;28;20124;-74
2024/03/19 06:04:45;;;;;;;19.95;9.93;;;9.20;99.90;;;;;;5025800;28;20030;-73
2024/03/19 06:07:11;;;;;;;22.65;10.70;;;9.30;99.90;;;;;;5042452;28;20059;-75
2024/03/19 06:09:43;;;;;;;19.30;9.02;;;9.20;99.90;;;;;;5030687;28;20087;-74
2024/03/19 06:12:09;;;;;;;17.85;8.68;;;9.30;99.90;;;;;;5047743;28;20032;-75
2024/03/19 06:14:38;;;;;;;19.40;10.68;;;9.30;99.90;;;;;;5051456;28;20029;-75
2024/03/19 06:17:03;;;;;;;18.48;9.20;;;9.20;99.90;;;;;;5054738;28;20033;-75
2024/03/19 06:19:29;;;;;;;18.80;9.45;;;9.20;99.90;;;;;;5049776;28;20046;-74
2024/03/19 06:21:55;;;;;;;22.17;10.27;;;9.20;99.90;;;;;;5032489;28;20037;-74
2024/03/19 06:24:21;;;;;;;18.90;9.13;;;9.20;99.90;;;;;;5030794;28;20033;-74
2024/03/19 06:26:49;;;;;;;19.40;10.00;;;9.20;99.90;;;;;;5026263;28;20025;-75
2024/03/19 06:29:17;;;;;;;19.88;9.10;;;9.20;99.90;;;;;;5028335;28;20017;-73
2024/03/19 06:31:43;;;;;;;;;;;9.20;99.90;;;;;;5031789;28;20042;-73
2024/03/19 06:34:09;;;;;;;18.90;9.23;;;9.10;99.90;;;;;;5028908;28;19923;-73
2024/03/19 06:36:35;;;;;;;20.30;8.63;;;9.10;99.90;;;;;;5030067;28;20043;-73
2024/03/19 06:39:03;;;;;;;19.90;9.48;;;9.00;99.90;;;;;;5029455;28;20165;-74
2024/03/19 06:41:31;;;;;;;23.65;9.52;;;9.00;99.90;;;;;;5030613;28;20102;-73
2024/03/19 06:44:00;;;;;;;20.40;9.37;;;9.10;99.90;;;;;;5026012;28;20033;-74
2024/03/19 06:46:25;;;;;;;18.10;10.02;;;9.10;99.90;;;;;;5029508;28;20033;-73
2024/03/19 06:48:51;;;;;;;20.52;9.82;;;9.10;99.90;;;;;;5026511;28;20467;-74
2024/03/19 06:51:16;;;;;;;21.27;10.07;;;9.10;99.90;;;;;;5030611;28;20103;-74
2024/03/19 06:53:43;;;;;;;18.58;9.98;;;9.10;99.90;;;;;;5031684;28;20046;-74
2024/03/19 06:56:10;;;;;;;21.77;9.93;;;9.20;99.90;;;;;;5024304;28;20054;-74
2024/03/19 06:58:36;;;;;;;24.10;10.93;;;9.20;99.90;;;;;;5023363;28;20534;-74
2024/03/19 07:01:09;;;;;;;18.95;9.32;;;9.30;99.90;;;;;;5020114;28;20044;-73
2024/03/19 07:03:35;;;;;;;21.02;10.70;;;9.30;99.90;;;;;;5008941;28;20369;-75
2024/03/19 07:06:03;;;;;;;20.38;7.97;;;9.30;99.90;;;;;;5009167;28;20033;-73
2024/03/19 07:08:30;;;;;;;19.90;8.32;;;9.20;99.90;;;;;;5012714;28;20443;-74
2024/03/19 07:10:59;;;;;;;19.40;9.02;;;9.20;99.90;;;;;;5006955;28;20108;-74
2024/03/19 07:13:25;;;;;;;19.63;9.27;;;9.10;99.90;;;;;;5007789;28;20025;-73
2024/03/19 07:15:51;;;;;;;19.10;8.57;;;9.20;99.90;;;;;;5008520;28;20033;-74
2024/03/19 07:18:20;;;;;;;19.13;9.43;;;9.20;99.90;;;;;;5010432;28;20034;-74
2024/03/19 07:20:46;;;;;;;17.80;8.35;;;9.20;99.90;;;;;;5003451;28;20124;-73
2024/03/19 07:23:12;;;;;;;21.85;9.45;;;9.30;99.90;;;;;;5007779;28;20113;-73
2024/03/19 07:25:38;;;;;;;23.73;9.88;;;9.40;99.90;;;;;;5009071;28;20515;-74
2024/03/19 07:28:03;;;;;;;20.10;8.73;;;9.40;99.90;;;;;;5007987;28;20032;-74
2024/03/19 07:30:29;;;;;;;22.77;10.15;;;9.30;99.90;;;;;;5012711;28;20091;-74
2024/03/19 07:32:58;;;;;;;20.80;9.63;;;9.40;99.90;;;;;;5032771;28;20498;-74
2024/03/19 07:35:24;;;;;;;22.25;10.20;;;9.50;99.90;;;;;;5027690;28;20026;-74
2024/03/19 07:37:50;;;;;;;21.00;10.07;;;9.40;99.90;;;;;;5032830;28;20037;-74
2024/03/19 07:40:20;;;;;;;21.73;9.73;;;9.50;99.90;;;;;;5033023;28;20121;-77
2024/03/19 07:42:50;;;;;;;18.75;9.15;;;9.50;99.90;;;;;;5043330;28;20034;-74
2024/03/19 07:45:16;;;;;;;22.85;9.60;;;9.50;99.90;;;;;;5038871;28;20033;-76
2024/03/19 07:47:42;;;;;;;17.25;8.52;;;9.50;99.90;;;;;;5031396;28;20068;-74
2024/03/19 07:50:10;;;;;;;19.15;8.50;;;9.40;99.90;;;;;;5029431;28;20017;-74
2024/03/19 07:52:36;;;;;;;10.23;5.28;;;9.30;99.90;;;;;;5031880;28;20029;-74
2024/03/19 07:55:03;;;;;;;14.63;7.25;;;9.20;99.90;;;;;;5045344;28;20038;-73
2024/03/19 07:57:29;;;;;;;22.58;9.52;;;8.90;99.90;;;;;;5030538;28;20030;-75
2024/03/19 07:59:55;;;;;;;20.27;9.82;;;8.90;99.90;;;;;;5030753;28;20040;-74
2024/03/19 08:02:21;;;;;;;20.13;9.50;;;8.90;99.90;;;;;;5036055;28;20038;-74
2024/03/19 08:04:50;;;;;;;23.50;10.65;;;9.00;99.90;;;;;;5036599;28;20028;-76
2024/03/19 08:07:16;;;;;;;19.05;8.82;;;9.10;99.90;;;;;;5040005;28;20399;-74
2024/03/19 08:09:42;;;;;;;11.32;6.60;;;9.00;99.90;;;;;;5041271;28;20033;-74
2024/03/19 08:12:08;;;;;;;11.95;6.57;;;9.10;99.90;;;;;;5034615;28;20025;-74
2024/03/19 08:14:34;;;;;;;6.75;5.05;;;9.10;99.90;;;;;;5032991;28;20025;-75
2024/03/19 08:17:00;;;;;;;18.38;9.32;;;9.00;99.90;;;;;;5035033;28;20037;-74
2024/03/19 08:19:26;;;;;;;11.77;4.80;;;9.00;99.90;;;;;;5026910;28;20106;-73
2024/03/19 08:21:53;;;;;;;18.55;9.00;;;9.10;99.90;;;;;;5030405;28;20072;-74
2024/03/19 08:24:18;;;;;;;10.95;6.53;;;9.00;99.90;;;;;;5037311;28;20021;-74
2024/03/19 08:26:44;;;;;;;19.17;8.95;;;9.10;99.90;;;;;;5034204;28;20110;-75
2024/03/19 08:29:11;;;;;;;21.00;9.63;;;9.00;99.90;;;;;;5047088;28;20029;-74
2024/03/19 08:31:38;;;;;;;19.80;9.10;;;9.10;99.90;;;;;;5035443;28;20030;-73
2024/03/19 08:34:03;;;;;;;20.60;10.35;;;9.30;99.90;;;;;;5036715;28;20022;-73
2024/03/19 08:36:29;;;;;;;20.23;9.05;;;9.40;99.90;;;;;;5039449;28;20028;-75
2024/03/19 08:38:55;;;;;;;18.13;9.52;;;9.60;99.90;;;;;;5032411;28;20060;-74
2024/03/19 08:41:21;;;;;;;19.65;9.73;;;9.60;99.90;;;;;;5037170;28;20030;-74
2024/03/19 08:43:50;;;;;;;18.48;9.23;;;9.80;99.90;;;;;;5034914;28;20075;-75
2024/03/19 08:46:17;;;;;;;20.77;9.82;;;9.80;99.90;;;;;;5036679;28;20037;-74
2024/03/19 08:48:43;;;;;;;21.02;10.52;;;10.00;99.90;;;;;;5033733;28;20026;-74
2024/03/19 08:51:08;;;;;;;21.40;10.00;;;10.20;99.90;;;;;;5024444;28;20026;-74
2024/03/19 08:53:35;;;;;;;20.45;9.05;;;10.20;99.90;;;;;;5026054;28;20076;-74
2024/03/19 08:56:01;;;;;;;22.90;10.38;;;10.20;99.90;;;;;;5029067;28;20022;-74
2024/03/19 08:58:26;;;;;;;32.30;10.70;;;10.00;99.90;;;;;;5026609;28;20089;-73
2024/03/19 09:00:52;;;;;;;21.98;10.48;;;9.90;99.90;;;;;;5026595;28;20030;-74
2024/03/19 09:03:18;;;;;;;20.13;9.90;;;10.10;99.90;;;;;;5028254;28;20029;-74
2024/03/19 09:05:43;;;;;;;19.63;9.00;;;10.10;99.90;;;;;;5022388;28;20052;-75
2024/03/19 09:08:09;;;;;;;16.58;8.23;;;10.20;99.90;;;;;;5028083;28;20085;-73
2024/03/19 09:10:36;;;;;;;17.77;8.90;;;10.10;99.90;;;;;;5029609;28;20037;-73
2024/03/19 09:13:01;;;;;;;20.25;9.55;;;9.90;99.90;;;;;;5036693;28;20044;-73
2024/03/19 09:15:27;;;;;;;20.08;10.43;;;10.10;99.90;;;;;;5039627;28;20475;-73
2024/03/19 09:17:56;;;;;;;16.90;9.20;;;10.10;99.90;;;;;;5039137;28;20032;-73
2024/03/19 09:20:22;;;;;;;18.88;9.43;;;10.30;99.90;;;;;;5031382;28;20034;-74
2024/03/19 09:22:50;;;;;;;24.33;10.15;;;10.50;99.90;;;;;;5028358;28;20032;-75
2024/03/19 09:25:16;;;;;;;18.60;9.38;;;10.40;99.90;;;;;;5034089;28;20336;-75
2024/03/19 09:27:42;;;;;;;24.52;10.73;;;10.60;99.90;;;;;;5037673;28;20057;-75
2024/03/19 09:30:09;;;;;;;16.85;9.10;;;10.50;99.90;;;;;;5035188;28;20108;-74
2024/03/19 09:32:37;;;;;;;20.15;10.35;;;10.50;99.90;;;;;;5029015;28;20064;-74
2024/03/19 09:35:06;;;;;;;21.45;10.60;;;10.70;99.90;;;;;;5031965;28;20018;-75
2024/03/19 09:37:32;;;;;;;21.40;10.40;;;10.80;99.90;;;;;;5029400;28;20159;-74
2024/03/19 09:39:58;;;;;;;16.70;9.23;;;11.00;99.90;;;;;;5023317;28;20533;-75
2024/03/19 09:42:25;;;;;;;16.35;9.10;;;11.00;99.90;;;;;;5028962;28;20087;-74
2024/03/19 09:44:52;;;;;;;16.90;9.48;;;11.10;99.90;;;;;;5026251;28;20265;-73
2024/03/19 09:47:20;;;;;;;21.38;9.75;;;11.00;99.90;;;;;;5031064;28;20029;-74
2024/03/19 09:49:46;;;;;;;20.38;9.65;;;10.90;99.90;;;;;;5028242;28;20636;-73
2024/03/19 09:52:16;;;;;;;19.75;10.32;;;10.90;99.90;;;;;;5030082;28;20041;-73
2024/03/19 09:54:42;;;;;;;20.75;11.40;;;10.90;99.90;;;;;;5034014;28;20048;-73
2024/03/19 09:57:14;;;;;;;19.13;9.48;;;11.00;99.90;;;;;;5032301;28;20057;-73
2024/03/19 09:59:40;;;;;;;18.67;10.60;;;11.00;99.90;;;;;;5033707;28;20061;-73
2024/03/19 10:02:18;;;;;;;17.77;10.07;;;11.20;99.90;;;;;;5029644;28;20044;-73
2024/03/19 10:04:48;;;;;;;16.23;9.53;;;11.10;99.90;;;;;;5029262;28;20067;-73
2024/03/19 10:07:16;;;;;;;20.30;10.77;;;11.10;99.90;;;;;;5028770;28;20029;-75
2024/03/19 10:09:46;;;;;;;19.58;10.35;;;11.00;99.90;;;;;;5026929;28;20028;-73
2024/03/19 10:12:12;;;;;;;17.75;9.30;;;11.00;99.90;;;;;;5030386;28;20045;-74
2024/03/19 10:14:38;;;;;;;16.98;10.05;;;11.10;99.90;;;;;;5030976;28;20021;-76
2024/03/19 10:17:06;;;;;;;18.45;9.57;;;11.10;99.90;;;;;;5032053;28;20402;-73
2024/03/19 10:19:32;;;;;;;14.23;8.67;;;11.30;99.90;;;;;;5044391;28;20143;-73
2024/03/19 10:21:59;;;;;;;16.27;9.63;;;11.50;99.90;;;;;;5025809;28;20276;-74
2024/03/19 10:24:24;;;;;;;15.68;8.88;;;11.70;99.90;;;;;;5031809;28;20029;-73
2024/03/19 10:26:51;;;;;;;15.05;8.45;;;11.80;99.90;;;;;;5030748;28;20030;-73
2024/03/19 10:29:17;;;;;;;14.55;8.93;;;11.80;99.90;;;;;;5031700;28;20598;-73
2024/03/19 10:31:46;;;;;;;17.30;10.40;;;12.00;99.90;;;;;;5025712;28;20101;-73
2024/03/19 10:34:20;;;;;;;15.93;9.05;;;11.80;99.90;;;;;;5025706;28;20434;-73
2024/03/19 10:36:48;;;;;;;15.00;8.65;;;11.70;99.90;;;;;;5027576;28;20430;-74
2024/03/19 10:39:15;;;;;;;;;;;11.90;99.90;;;;;;5029553;28;20193;-73
2024/03/19 10:41:42;;;;;;;17.20;9.20;;;12.10;99.90;;;;;;5028867;28;20064;-74
2024/03/19 10:44:14;;;;;;;16.30;8.63;;;12.00;99.90;;;;;;5030050;28;20014;-73
2024/03/19 10:46:41;;;;;;;15.35;8.85;;;12.10;99.90;;;;;;5029458;28;20036;-74
2024/03/19 10:49:08;;;;;;;12.88;7.82;;;12.20;99.90;;;;;;5032477;28;20045;-73
2024/03/19 10:51:34;;;;;;;15.88;9.23;;;12.30;99.90;;;;;;5030857;28;20028;-73
2024/03/19 10:54:01;;;;;;;17.65;9.35;;;12.50;99.90;;;;;;5032136;28;20176;-73
2024/03/19 10:56:29;;;;;;;14.95;8.38;;;12.70;99.90;;;;;;5028902;28;20089;-74
2024/03/19 10:58:56;;;;;;;14.43;8.45;;;12.90;99.90;;;;;;5025063;28;20119;-73
2024/03/19 11:01:22;;;;;;;15.95;8.57;;;12.80;99.90;;;;;;5028565;28;20037;-74
2024/03/19 11:03:53;;;;;;;17.58;9.60;;;12.40;99.90;;;;;;5027271;28;20533;-73
2024/03/19 11:06:22;;;;;;;13.30;8.10;;;12.40;99.90;;;;;;5023015;28;20116;-73
2024/03/19 11:08:56;;;;;;;11.85;8.02;;;12.40;99.90;;;;;;5028627;28;20499;-74
2024/03/19 11:11:35;;;;;;;12.43;8.57;;;12.30;99.90;;;;;;5031512;28;20037;-74
2024/03/19 11:14:02;;;;;;;16.10;7.72;;;12.20;99.90;;;;;;5027523;28;20451;-73
2024/03/19 11:16:39;;;;;;;15.65;8.02;;;12.20;99.90;;;;;;5029315;28;20164;-75
2024/03/19 11:19:20;;;;;;;12.13;8.32;;;12.40;99.90;;;;;;5028836;28;20030;-74
2024/03/19 11:21:50;;;;;;;12.43;7.43;;;12.80;99.90;;;;;;5025170;28;20049;-73
2024/03/19 11:24:32;;;;;;;14.63;7.50;;;12.90;99.90;;;;;;5025992;28;20510;-74
2024/03/19 11:26:59;;;;;;;11.98;7.43;;;13.20;99.90;;;;;;5029976;28;20037;-74
2024/03/19 11:29:31;;;;;;;12.43;7.28;;;13.20;99.90;;;;;;5030332;28;20022;-74
2024/03/19 11:31:57;;;;;;;14.00;7.45;;;13.20;99.90;;;;;;5025970;28;20056;-74
2024/03/19 11:34:23;;;;;;;12.68;7.07;;;13.30;99.90;;;;;;5028745;28;20018;-74
2024/03/19 11:36:50;;;;;;;8.98;5.90;;;13.40;99.90;;;;;;5025338;28;20364;-74
2024/03/19 11:39:16;;;;;;;10.20;5.78;;;13.40;99.90;;;;;;5027774;28;20315;-74
2024/03/19 11:41:42;;;;;;;7.05;5.05;;;13.30;99.90;;;;;;5030327;28;20837;-74
2024/03/19 11:44:19;;;;;;;10.15;3.90;;;13.60;99.90;;;;;;5030578;28;20033;-74
2024/03/19 11:46:47;;;;;;;9.38;5.43;;;13.60;99.90;;;;;;5032640;28;20586;-74
2024/03/19 11:49:23;;;;;;;7.45;4.40;;;13.80;99.90;;;;;;5026928;28;20045;-73
2024/03/19 11:51:56;;;;;;;8.02;5.75;;;13.70;99.90;;;;;;5028121;28;20292;-73
2024/03/19 11:54:22;;;;;;;7.13;5.10;;;13.50;99.90;;;;;;5029167;28;20069;-74
2024/03/19 11:56:49;;;;;;;7.97;5.22;;;13.50;99.90;;;;;;5029367;28;20447;-74
2024/03/19 11:59:14;;;;;;;8.45;4.97;;;13.70;99.90;;;;;;5029293;28;20049;-74
2024/03/19 12:01:40;;;;;;;7.07;4.93;;;13.90;99.90;;;;;;5013794;28;20072;-73
2024/03/19 12:04:08;;;;;;;6.35;4.55;;;13.90;99.90;;;;;;5006179;28;20082;-73
2024/03/19 12:06:34;;;;;;;7.93;4.80;;;13.90;99.90;;;;;;5008520;28;20021;-74
2024/03/19 12:08:59;;;;;;;7.35;4.70;;;13.80;99.90;;;;;;5025502;28;20034;-74
2024/03/19 12:11:25;;;;;;;7.18;4.57;;;13.70;99.90;;;;;;5004906;28;20049;-74
2024/03/19 12:13:51;;;;;;;7.88;4.47;;;13.70;99.90;;;;;;5022508;28;20026;-74
2024/03/19 12:16:17;;;;;;;6.10;4.43;;;13.80;99.90;;;;;;5001845;28;20038;-73
2024/03/19 12:18:42;;;;;;;8.27;4.10;;;13.80;99.90;;;;;;5009213;28;20040;-74
2024/03/19 12:21:14;;;;;;;5.63;3.78;;;13.80;99.90;;;;;;5007241;28;20030;-74
2024/03/19 12:23:40;;;;;;;8.43;5.35;;;14.00;99.90;;;;;;5006703;28;20100;-73
2024/03/19 12:26:09;;;;;;;7.63;4.82;;;14.00;99.90;;;;;;5006105;28;20030;-73
2024/03/19 12:28:35;;;;;;;6.30;4.40;;;13.90;99.90;;;;;;5007113;28;20057;-73
2024/03/19 12:31:00;;;;;;;6.38;3.67;;;14.00;99.90;;;;;;5010628;28;20037;-74
2024/03/19 12:33:41;;;;;;;7.63;5.15;;;13.90;99.90;;;;;;5023851;28;20562;-75
2024/03/19 12:36:07;;;;;;;6.60;4.50;;;14.10;99.90;;;;;;5027744;28;20096;-74
2024/03/19 12:38:33;;;;;;;7.55;4.93;;;14.30;99.90;;;;;;5025002;28;20083;-73
2024/03/19 12:40:59;;;;;;;8.13;4.82;;;14.30;99.90;;;;;;5028768;28;20025;-74
2024/03/19 12:43:27;;;;;;;8.15;5.65;;;14.30;99.90;;;;;;5032269;28;20056;-74
2024/03/19 12:45:53;;;;;;;8.55;5.00;;;14.40;99.90;;;;;;5030357;28;20120;-73